sensor_id;sensor_type;location;lat;lon;timestamp;P1;durP1;ratioP1;P2;durP2;ratioP2
55076;SDS011;40971;44.702;11.030;2022-09-09T00:04:38;18.55;;;8.48;;
55076;SDS011;40971;44.702;11.030;2022-09-09T00:18:58;17.58;;;7.05;;
55076;SDS011;40971;44.702;11.030;2022-09-09T00:22:23;18.15;;;7.95;;
55076;SDS011;40971;44.702;11.030;2022-09-09T00:25:02;12.25;;;6.47;;
55076;SDS011;40971;44.702;11.030;2022-09-09T00:27:46;15.88;;;7.65;;
55076;SDS011;40971;44.702;11.030;2022-09-09T00:33:33;17.83;;;6.47;;
55076;SDS011;40971;44.702;11.030;2022-09-09T00:35:42;17.13;;;6.57;;
55076;SDS011;40971;44.702;11.030;2022-09-09T00:38:19;13.65;;;6.50;;
55076;SDS011;40971;44.702;11.030;2022-09-09T00:43:38;17.52;;;8.82;;
55076;SDS011;40971;44.702;11.030;2022-09-09T00:46:20;17.35;;;8.07;;
55076;SDS011;40971;44.702;11.030;2022-09-09T00:57:05;15.88;;;7.88;;
55076;SDS011;40971;44.702;11.030;2022-09-09T00:59:52;13.85;;;7.53;;
55076;SDS011;40971;44.702;11.030;2022-09-09T01:02:29;15.50;;;6.50;;
55076;SDS011;40971;44.702;11.030;2022-09-09T01:05:05;14.95;;;6.13;;
55076;SDS011;40971;44.702;11.030;2022-09-09T01:07:38;11.45;;;6.15;;
55076;SDS011;40971;44.702;11.030;2022-09-09T01:10:17;18.13;;;7.90;;
55076;SDS011;40971;44.702;11.030;2022-09-09T01:12:55;14.15;;;8.20;;
55076;SDS011;40971;44.702;11.030;2022-09-09T01:15:27;14.02;;;6.50;;
55076;SDS011;40971;44.702;11.030;2022-09-09T01:18:04;12.10;;;5.97;;
55076;SDS011;40971;44.702;11.030;2022-09-09T01:28:47;59.03;;;5.72;;
55076;SDS011;40971;44.702;11.030;2022-09-09T01:31:19;14.48;;;5.72;;
55076;SDS011;40971;44.702;11.030;2022-09-09T01:33:47;76.18;;;4.47;;
55076;SDS011;40971;44.702;11.030;2022-09-09T01:36:17;21.23;;;3.85;;
55076;SDS011;40971;44.702;11.030;2022-09-09T01:38:49;8.13;;;4.85;;
55076;SDS011;40971;44.702;11.030;2022-09-09T01:41:14;8.77;;;4.20;;
55076;SDS011;40971;44.702;11.030;2022-09-09T01:43:40;8.32;;;4.30;;
55076;SDS011;40971;44.702;11.030;2022-09-09T01:46:05;19.25;;;8.13;;
55076;SDS011;40971;44.702;11.030;2022-09-09T01:48:31;18.40;;;8.20;;
55076;SDS011;40971;44.702;11.030;2022-09-09T01:50:58;20.80;;;8.77;;
55076;SDS011;40971;44.702;11.030;2022-09-09T01:53:23;14.40;;;8.68;;
55076;SDS011;40971;44.702;11.030;2022-09-09T02:04:02;12.32;;;6.63;;
55076;SDS011;40971;44.702;11.030;2022-09-09T02:09:05;12.00;;;6.55;;
55076;SDS011;40971;44.702;11.030;2022-09-09T02:11:33;11.18;;;6.50;;
55076;SDS011;40971;44.702;11.030;2022-09-09T02:14:05;13.65;;;5.45;;
55076;SDS011;40971;44.702;11.030;2022-09-09T02:19:11;16.88;;;7.20;;
55076;SDS011;40971;44.702;11.030;2022-09-09T02:21:42;26.35;;;6.03;;
55076;SDS011;40971;44.702;11.030;2022-09-09T02:24:10;44.63;;;6.43;;
55076;SDS011;40971;44.702;11.030;2022-09-09T02:26:40;21.48;;;6.70;;
55076;SDS011;40971;44.702;11.030;2022-09-09T02:29:13;86.95;;;13.27;;
55076;SDS011;40971;44.702;11.030;2022-09-09T02:31:44;13.43;;;8.15;;
55076;SDS011;40971;44.702;11.030;2022-09-09T02:34:12;15.90;;;8.43;;
55076;SDS011;40971;44.702;11.030;2022-09-09T02:36:41;16.92;;;8.55;;
55076;SDS011;40971;44.702;11.030;2022-09-09T02:39:10;12.52;;;6.28;;
55076;SDS011;40971;44.702;11.030;2022-09-09T02:41:37;11.82;;;6.43;;
55076;SDS011;40971;44.702;11.030;2022-09-09T02:44:08;15.57;;;7.75;;
55076;SDS011;40971;44.702;11.030;2022-09-09T02:49:28;15.70;;;7.03;;
55076;SDS011;40971;44.702;11.030;2022-09-09T02:52:07;18.08;;;7.60;;
55076;SDS011;40971;44.702;11.030;2022-09-09T02:54:37;14.10;;;7.93;;
55076;SDS011;40971;44.702;11.030;2022-09-09T02:59:44;103.65;;;6.30;;
55076;SDS011;40971;44.702;11.030;2022-09-09T03:02:10;54.92;;;7.93;;
55076;SDS011;40971;44.702;11.030;2022-09-09T03:04:36;126.10;;;8.82;;
55076;SDS011;40971;44.702;11.030;2022-09-09T03:07:03;122.72;;;8.45;;
55076;SDS011;40971;44.702;11.030;2022-09-09T03:09:28;237.10;;;14.35;;
55076;SDS011;40971;44.702;11.030;2022-09-09T03:11:54;16.63;;;9.38;;
55076;SDS011;40971;44.702;11.030;2022-09-09T03:14:20;13.18;;;8.38;;
55076;SDS011;40971;44.702;11.030;2022-09-09T03:16:52;11.30;;;7.03;;
55076;SDS011;40971;44.702;11.030;2022-09-09T03:19:18;10.60;;;6.63;;
55076;SDS011;40971;44.702;11.030;2022-09-09T03:21:44;11.63;;;6.50;;
55076;SDS011;40971;44.702;11.030;2022-09-09T03:24:11;86.57;;;8.02;;
55076;SDS011;40971;44.702;11.030;2022-09-09T03:26:36;73.47;;;7.80;;
55076;SDS011;40971;44.702;11.030;2022-09-09T03:29:03;277.50;;;12.75;;
55076;SDS011;40971;44.702;11.030;2022-09-09T03:31:30;171.07;;;11.65;;
55076;SDS011;40971;44.702;11.030;2022-09-09T03:33:56;102.85;;;10.55;;
55076;SDS011;40971;44.702;11.030;2022-09-09T03:36:23;66.47;;;11.20;;
55076;SDS011;40971;44.702;11.030;2022-09-09T03:38:49;169.90;;;11.35;;
55076;SDS011;40971;44.702;11.030;2022-09-09T03:41:15;13.35;;;7.65;;
55076;SDS011;40971;44.702;11.030;2022-09-09T03:43:41;62.60;;;9.93;;
55076;SDS011;40971;44.702;11.030;2022-09-09T03:46:06;57.72;;;9.82;;
55076;SDS011;40971;44.702;11.030;2022-09-09T03:48:32;79.18;;;11.20;;
55076;SDS011;40971;44.702;11.030;2022-09-09T03:50:57;60.10;;;12.60;;
55076;SDS011;40971;44.702;11.030;2022-09-09T03:53:25;47.70;;;9.77;;
55076;SDS011;40971;44.702;11.030;2022-09-09T03:55:52;82.18;;;10.60;;
55076;SDS011;40971;44.702;11.030;2022-09-09T03:58:19;154.65;;;10.73;;
55076;SDS011;40971;44.702;11.030;2022-09-09T04:01:20;110.65;;;10.98;;
55076;SDS011;40971;44.702;11.030;2022-09-09T04:03:39;189.25;;;12.60;;
55076;SDS011;40971;44.702;11.030;2022-09-09T04:06:08;190.98;;;12.43;;
55076;SDS011;40971;44.702;11.030;2022-09-09T04:08:34;134.57;;;10.63;;
55076;SDS011;40971;44.702;11.030;2022-09-09T04:11:01;40.08;;;9.20;;
55076;SDS011;40971;44.702;11.030;2022-09-09T04:13:29;23.08;;;8.82;;
55076;SDS011;40971;44.702;11.030;2022-09-09T04:15:56;22.98;;;8.30;;
55076;SDS011;40971;44.702;11.030;2022-09-09T04:18:24;33.33;;;9.18;;
55076;SDS011;40971;44.702;11.030;2022-09-09T04:20:51;29.67;;;9.38;;
55076;SDS011;40971;44.702;11.030;2022-09-09T04:23:17;33.42;;;9.43;;
55076;SDS011;40971;44.702;11.030;2022-09-09T04:25:44;67.30;;;9.88;;
55076;SDS011;40971;44.702;11.030;2022-09-09T04:28:11;25.25;;;8.35;;
55076;SDS011;40971;44.702;11.030;2022-09-09T04:30:38;35.10;;;9.48;;
55076;SDS011;40971;44.702;11.030;2022-09-09T04:33:04;52.92;;;8.80;;
55076;SDS011;40971;44.702;11.030;2022-09-09T04:35:31;90.78;;;10.15;;
55076;SDS011;40971;44.702;11.030;2022-09-09T04:37:58;27.60;;;10.13;;
55076;SDS011;40971;44.702;11.030;2022-09-09T04:40:23;24.48;;;8.52;;
55076;SDS011;40971;44.702;11.030;2022-09-09T04:42:50;31.30;;;9.38;;
55076;SDS011;40971;44.702;11.030;2022-09-09T04:45:16;23.65;;;9.23;;
55076;SDS011;40971;44.702;11.030;2022-09-09T04:47:41;20.67;;;8.25;;
55076;SDS011;40971;44.702;11.030;2022-09-09T04:50:07;14.70;;;8.55;;
55076;SDS011;40971;44.702;11.030;2022-09-09T04:52:34;46.35;;;9.02;;
55076;SDS011;40971;44.702;11.030;2022-09-09T04:55:00;63.83;;;8.65;;
55076;SDS011;40971;44.702;11.030;2022-09-09T04:57:27;38.47;;;7.40;;
55076;SDS011;40971;44.702;11.030;2022-09-09T04:59:53;11.57;;;6.57;;
55076;SDS011;40971;44.702;11.030;2022-09-09T05:02:19;12.48;;;7.95;;
55076;SDS011;40971;44.702;11.030;2022-09-09T05:04:44;15.13;;;6.65;;
55076;SDS011;40971;44.702;11.030;2022-09-09T05:07:10;29.83;;;7.78;;
55076;SDS011;40971;44.702;11.030;2022-09-09T05:09:35;49.05;;;7.75;;
55076;SDS011;40971;44.702;11.030;2022-09-09T05:12:01;17.73;;;8.35;;
55076;SDS011;40971;44.702;11.030;2022-09-09T05:14:28;17.20;;;9.07;;
55076;SDS011;40971;44.702;11.030;2022-09-09T05:16:55;24.25;;;9.98;;
55076;SDS011;40971;44.702;11.030;2022-09-09T05:19:21;22.25;;;10.27;;
55076;SDS011;40971;44.702;11.030;2022-09-09T05:21:46;47.45;;;11.45;;
55076;SDS011;40971;44.702;11.030;2022-09-09T05:24:13;21.35;;;11.25;;
55076;SDS011;40971;44.702;11.030;2022-09-09T05:26:39;21.70;;;12.45;;
55076;SDS011;40971;44.702;11.030;2022-09-09T05:29:05;36.25;;;14.30;;
55076;SDS011;40971;44.702;11.030;2022-09-09T05:31:31;24.77;;;14.38;;
55076;SDS011;40971;44.702;11.030;2022-09-09T05:33:56;24.70;;;13.68;;
55076;SDS011;40971;44.702;11.030;2022-09-09T05:36:22;30.75;;;14.75;;
55076;SDS011;40971;44.702;11.030;2022-09-09T05:38:48;27.35;;;13.18;;
55076;SDS011;40971;44.702;11.030;2022-09-09T05:41:15;22.50;;;12.23;;
55076;SDS011;40971;44.702;11.030;2022-09-09T05:43:41;27.63;;;12.43;;
55076;SDS011;40971;44.702;11.030;2022-09-09T05:46:16;46.35;;;12.77;;
55076;SDS011;40971;44.702;11.030;2022-09-09T05:48:44;59.85;;;11.90;;
55076;SDS011;40971;44.702;11.030;2022-09-09T05:51:15;48.78;;;12.93;;
55076;SDS011;40971;44.702;11.030;2022-09-09T05:53:42;37.42;;;11.95;;
55076;SDS011;40971;44.702;11.030;2022-09-09T05:56:16;49.53;;;12.60;;
55076;SDS011;40971;44.702;11.030;2022-09-09T05:58:46;27.52;;;13.27;;
55076;SDS011;40971;44.702;11.030;2022-09-09T06:03:45;31.25;;;13.63;;
55076;SDS011;40971;44.702;11.030;2022-09-09T06:06:15;48.13;;;13.48;;
55076;SDS011;40971;44.702;11.030;2022-09-09T06:08:43;38.10;;;13.18;;
55076;SDS011;40971;44.702;11.030;2022-09-09T06:13:40;82.43;;;17.33;;
55076;SDS011;40971;44.702;11.030;2022-09-09T06:16:09;82.93;;;15.15;;
55076;SDS011;40971;44.702;11.030;2022-09-09T06:18:39;25.95;;;13.35;;
55076;SDS011;40971;44.702;11.030;2022-09-09T06:21:06;90.57;;;12.57;;
55076;SDS011;40971;44.702;11.030;2022-09-09T06:23:34;87.82;;;14.07;;
55076;SDS011;40971;44.702;11.030;2022-09-09T06:26:06;24.77;;;12.52;;
55076;SDS011;40971;44.702;11.030;2022-09-09T06:28:35;95.82;;;14.00;;
55076;SDS011;40971;44.702;11.030;2022-09-09T06:31:02;118.93;;;14.40;;
55076;SDS011;40971;44.702;11.030;2022-09-09T06:33:35;165.88;;;14.00;;
55076;SDS011;40971;44.702;11.030;2022-09-09T06:36:06;125.28;;;15.18;;
55076;SDS011;40971;44.702;11.030;2022-09-09T06:38:35;92.32;;;14.98;;
55076;SDS011;40971;44.702;11.030;2022-09-09T06:41:00;132.45;;;14.32;;
55076;SDS011;40971;44.702;11.030;2022-09-09T06:43:27;164.55;;;15.73;;
55076;SDS011;40971;44.702;11.030;2022-09-09T06:45:56;34.33;;;14.52;;
55076;SDS011;40971;44.702;11.030;2022-09-09T06:48:28;88.05;;;14.70;;
55076;SDS011;40971;44.702;11.030;2022-09-09T06:51:00;54.55;;;12.98;;
55076;SDS011;40971;44.702;11.030;2022-09-09T06:53:36;26.63;;;11.60;;
55076;SDS011;40971;44.702;11.030;2022-09-09T06:56:17;107.93;;;13.32;;
55076;SDS011;40971;44.702;11.030;2022-09-09T06:58:50;90.47;;;12.73;;
55076;SDS011;40971;44.702;11.030;2022-09-09T07:01:17;20.17;;;11.60;;
55076;SDS011;40971;44.702;11.030;2022-09-09T07:03:56;37.50;;;13.15;;
55076;SDS011;40971;44.702;11.030;2022-09-09T07:06:27;77.95;;;12.70;;
55076;SDS011;40971;44.702;11.030;2022-09-09T07:08:55;73.72;;;13.35;;
55076;SDS011;40971;44.702;11.030;2022-09-09T07:11:29;81.70;;;12.90;;
55076;SDS011;40971;44.702;11.030;2022-09-09T07:13:59;43.28;;;18.35;;
55076;SDS011;40971;44.702;11.030;2022-09-09T07:16:26;33.45;;;17.42;;
55076;SDS011;40971;44.702;11.030;2022-09-09T07:18:57;38.08;;;22.20;;
55076;SDS011;40971;44.702;11.030;2022-09-09T07:21:26;40.28;;;23.13;;
55076;SDS011;40971;44.702;11.030;2022-09-09T07:23:53;49.88;;;25.80;;
55076;SDS011;40971;44.702;11.030;2022-09-09T07:26:20;58.58;;;29.77;;
55076;SDS011;40971;44.702;11.030;2022-09-09T07:28:48;61.08;;;31.30;;
55076;SDS011;40971;44.702;11.030;2022-09-09T07:31:15;55.15;;;27.73;;
55076;SDS011;40971;44.702;11.030;2022-09-09T07:33:42;54.75;;;29.58;;
55076;SDS011;40971;44.702;11.030;2022-09-09T07:38:46;42.95;;;23.50;;
55076;SDS011;40971;44.702;11.030;2022-09-09T07:41:14;36.90;;;20.38;;
55076;SDS011;40971;44.702;11.030;2022-09-09T07:43:41;34.22;;;19.50;;
55076;SDS011;40971;44.702;11.030;2022-09-09T07:46:08;32.47;;;19.52;;
55076;SDS011;40971;44.702;11.030;2022-09-09T07:48:35;36.08;;;19.15;;
55076;SDS011;40971;44.702;11.030;2022-09-09T07:51:35;30.05;;;17.73;;
55076;SDS011;40971;44.702;11.030;2022-09-09T07:53:58;31.05;;;17.70;;
55076;SDS011;40971;44.702;11.030;2022-09-09T07:56:27;27.08;;;15.57;;
55076;SDS011;40971;44.702;11.030;2022-09-09T07:58:55;23.33;;;13.55;;
55076;SDS011;40971;44.702;11.030;2022-09-09T08:01:22;23.70;;;13.75;;
55076;SDS011;40971;44.702;11.030;2022-09-09T08:03:59;24.48;;;12.73;;
55076;SDS011;40971;44.702;11.030;2022-09-09T08:06:32;20.55;;;12.60;;
55076;SDS011;40971;44.702;11.030;2022-09-09T08:09:00;23.30;;;14.10;;
55076;SDS011;40971;44.702;11.030;2022-09-09T08:11:26;21.48;;;12.27;;
55076;SDS011;40971;44.702;11.030;2022-09-09T08:13:53;27.38;;;13.18;;
55076;SDS011;40971;44.702;11.030;2022-09-09T08:16:20;24.13;;;12.82;;
55076;SDS011;40971;44.702;11.030;2022-09-09T08:18:50;20.33;;;9.73;;
55076;SDS011;40971;44.702;11.030;2022-09-09T08:21:18;18.35;;;9.90;;
55076;SDS011;40971;44.702;11.030;2022-09-09T08:23:45;18.17;;;9.93;;
55076;SDS011;40971;44.702;11.030;2022-09-09T08:26:13;17.83;;;8.48;;
55076;SDS011;40971;44.702;11.030;2022-09-09T08:28:46;17.27;;;8.65;;
55076;SDS011;40971;44.702;11.030;2022-09-09T08:31:13;16.20;;;9.68;;
55076;SDS011;40971;44.702;11.030;2022-09-09T08:33:40;18.85;;;9.45;;
55076;SDS011;40971;44.702;11.030;2022-09-09T08:36:08;19.02;;;9.15;;
55076;SDS011;40971;44.702;11.030;2022-09-09T08:38:36;20.88;;;9.00;;
55076;SDS011;40971;44.702;11.030;2022-09-09T08:46:46;12.75;;;5.28;;
55076;SDS011;40971;44.702;11.030;2022-09-09T08:51:53;15.35;;;6.13;;
55076;SDS011;40971;44.702;11.030;2022-09-09T08:54:21;13.73;;;5.30;;
55076;SDS011;40971;44.702;11.030;2022-09-09T08:56:47;14.57;;;6.35;;
55076;SDS011;40971;44.702;11.030;2022-09-09T08:59:14;13.40;;;4.90;;
55076;SDS011;40971;44.702;11.030;2022-09-09T09:07:18;11.80;;;5.25;;
55076;SDS011;40971;44.702;11.030;2022-09-09T09:15:25;8.63;;;3.80;;
55076;SDS011;40971;44.702;11.030;2022-09-09T09:17:54;11.02;;;3.97;;
55076;SDS011;40971;44.702;11.030;2022-09-09T09:20:22;10.23;;;3.30;;
55076;SDS011;40971;44.702;11.030;2022-09-09T09:22:57;9.27;;;2.92;;
55076;SDS011;40971;44.702;11.030;2022-09-09T09:25:32;8.95;;;2.83;;
55076;SDS011;40971;44.702;11.030;2022-09-09T09:28:17;6.93;;;2.05;;
55076;SDS011;40971;44.702;11.030;2022-09-09T09:33:27;9.20;;;3.42;;
55076;SDS011;40971;44.702;11.030;2022-09-09T09:36:11;8.05;;;3.30;;
55076;SDS011;40971;44.702;11.030;2022-09-09T09:38:40;9.63;;;3.35;;
55076;SDS011;40971;44.702;11.030;2022-09-09T09:41:38;7.75;;;1.90;;
55076;SDS011;40971;44.702;11.030;2022-09-09T09:44:20;9.80;;;2.00;;
55076;SDS011;40971;44.702;11.030;2022-09-09T09:49:56;9.65;;;2.20;;
55076;SDS011;40971;44.702;11.030;2022-09-09T09:52:28;7.55;;;2.53;;
55076;SDS011;40971;44.702;11.030;2022-09-09T09:54:55;10.00;;;1.70;;
55076;SDS011;40971;44.702;11.030;2022-09-09T09:57:27;6.97;;;2.17;;
55076;SDS011;40971;44.702;11.030;2022-09-09T10:02:39;7.03;;;2.72;;
55076;SDS011;40971;44.702;11.030;2022-09-09T10:05:24;7.38;;;2.70;;
55076;SDS011;40971;44.702;11.030;2022-09-09T10:10:32;9.98;;;2.90;;
55076;SDS011;40971;44.702;11.030;2022-09-09T10:21:14;8.73;;;1.90;;
55076;SDS011;40971;44.702;11.030;2022-09-09T10:24:00;8.00;;;2.63;;
55076;SDS011;40971;44.702;11.030;2022-09-09T10:40:43;7.40;;;1.88;;
55076;SDS011;40971;44.702;11.030;2022-09-09T10:48:57;6.50;;;1.58;;
55076;SDS011;40971;44.702;11.030;2022-09-09T10:51:40;10.15;;;2.00;;
55076;SDS011;40971;44.702;11.030;2022-09-09T10:57:12;6.18;;;1.95;;
55076;SDS011;40971;44.702;11.030;2022-09-09T10:59:44;7.75;;;2.10;;
55076;SDS011;40971;44.702;11.030;2022-09-09T11:04:41;6.82;;;1.35;;
55076;SDS011;40971;44.702;11.030;2022-09-09T11:07:10;10.52;;;1.98;;
55076;SDS011;40971;44.702;11.030;2022-09-09T11:09:52;6.43;;;1.88;;
55076;SDS011;40971;44.702;11.030;2022-09-09T11:12:24;8.55;;;2.08;;
55076;SDS011;40971;44.702;11.030;2022-09-09T11:15:04;11.50;;;1.98;;
55076;SDS011;40971;44.702;11.030;2022-09-09T11:17:44;11.05;;;1.77;;
55076;SDS011;40971;44.702;11.030;2022-09-09T11:20:14;6.78;;;1.20;;
55076;SDS011;40971;44.702;11.030;2022-09-09T11:25:42;5.22;;;1.45;;
55076;SDS011;40971;44.702;11.030;2022-09-09T11:28:27;6.95;;;1.60;;
55076;SDS011;40971;44.702;11.030;2022-09-09T11:36:56;7.85;;;1.30;;
55076;SDS011;40971;44.702;11.030;2022-09-09T11:42:48;3.10;;;1.05;;
55076;SDS011;40971;44.702;11.030;2022-09-09T11:45:22;8.82;;;1.35;;
55076;SDS011;40971;44.702;11.030;2022-09-09T11:47:54;5.03;;;1.20;;
55076;SDS011;40971;44.702;11.030;2022-09-09T11:53:03;7.60;;;1.45;;
55076;SDS011;40971;44.702;11.030;2022-09-09T11:58:39;5.13;;;1.40;;
55076;SDS011;40971;44.702;11.030;2022-09-09T12:06:48;13.07;;;1.65;;
55076;SDS011;40971;44.702;11.030;2022-09-09T12:09:45;7.25;;;1.58;;
55076;SDS011;40971;44.702;11.030;2022-09-09T12:12:27;13.13;;;2.22;;
55076;SDS011;40971;44.702;11.030;2022-09-09T12:17:37;7.25;;;2.55;;
55076;SDS011;40971;44.702;11.030;2022-09-09T12:25:54;7.35;;;2.30;;
55076;SDS011;40971;44.702;11.030;2022-09-09T12:34:31;13.82;;;2.60;;
55076;SDS011;40971;44.702;11.030;2022-09-09T12:39:56;12.27;;;2.55;;
55076;SDS011;40971;44.702;11.030;2022-09-09T12:42:24;7.95;;;2.50;;
55076;SDS011;40971;44.702;11.030;2022-09-09T12:44:55;7.43;;;2.03;;
55076;SDS011;40971;44.702;11.030;2022-09-09T12:47:22;10.85;;;2.50;;
55076;SDS011;40971;44.702;11.030;2022-09-09T12:49:54;7.93;;;2.38;;
55076;SDS011;40971;44.702;11.030;2022-09-09T12:54:49;12.85;;;2.58;;
55076;SDS011;40971;44.702;11.030;2022-09-09T12:57:19;7.78;;;2.35;;
55076;SDS011;40971;44.702;11.030;2022-09-09T12:59:47;18.08;;;2.25;;
55076;SDS011;40971;44.702;11.030;2022-09-09T13:02:25;6.60;;;1.70;;
55076;SDS011;40971;44.702;11.030;2022-09-09T13:04:53;5.85;;;1.75;;
55076;SDS011;40971;44.702;11.030;2022-09-09T13:07:19;5.93;;;1.83;;
55076;SDS011;40971;44.702;11.030;2022-09-09T13:09:47;7.45;;;1.40;;
55076;SDS011;40971;44.702;11.030;2022-09-09T13:12:21;7.30;;;1.58;;
55076;SDS011;40971;44.702;11.030;2022-09-09T13:14:53;7.55;;;1.40;;
55076;SDS011;40971;44.702;11.030;2022-09-09T13:17:24;6.50;;;1.50;;
55076;SDS011;40971;44.702;11.030;2022-09-09T13:19:53;6.55;;;1.70;;
55076;SDS011;40971;44.702;11.030;2022-09-09T13:22:37;7.50;;;1.80;;
55076;SDS011;40971;44.702;11.030;2022-09-09T13:27:40;8.73;;;1.70;;
55076;SDS011;40971;44.702;11.030;2022-09-09T13:30:20;5.68;;;1.40;;
55076;SDS011;40971;44.702;11.030;2022-09-09T13:32:47;8.45;;;1.58;;
55076;SDS011;40971;44.702;11.030;2022-09-09T13:35:24;5.93;;;1.45;;
55076;SDS011;40971;44.702;11.030;2022-09-09T13:37:50;6.43;;;1.52;;
55076;SDS011;40971;44.702;11.030;2022-09-09T13:40:19;7.53;;;1.48;;
55076;SDS011;40971;44.702;11.030;2022-09-09T13:42:46;5.82;;;1.60;;
55076;SDS011;40971;44.702;11.030;2022-09-09T13:45:20;8.95;;;1.58;;
55076;SDS011;40971;44.702;11.030;2022-09-09T13:47:48;9.48;;;1.40;;
55076;SDS011;40971;44.702;11.030;2022-09-09T13:50:21;7.60;;;1.20;;
55076;SDS011;40971;44.702;11.030;2022-09-09T13:52:58;9.30;;;1.30;;
55076;SDS011;40971;44.702;11.030;2022-09-09T13:55:25;5.60;;;1.17;;
55076;SDS011;40971;44.702;11.030;2022-09-09T14:00:22;5.57;;;1.40;;
55076;SDS011;40971;44.702;11.030;2022-09-09T14:02:49;4.85;;;1.23;;
55076;SDS011;40971;44.702;11.030;2022-09-09T14:05:15;5.75;;;1.30;;
55076;SDS011;40971;44.702;11.030;2022-09-09T14:07:43;4.40;;;1.30;;
55076;SDS011;40971;44.702;11.030;2022-09-09T14:10:10;5.25;;;1.20;;
55076;SDS011;40971;44.702;11.030;2022-09-09T14:12:36;6.60;;;1.65;;
55076;SDS011;40971;44.702;11.030;2022-09-09T14:15:04;11.15;;;1.10;;
55076;SDS011;40971;44.702;11.030;2022-09-09T14:17:31;4.97;;;1.30;;
55076;SDS011;40971;44.702;11.030;2022-09-09T14:19:57;5.97;;;1.15;;
55076;SDS011;40971;44.702;11.030;2022-09-09T14:22:23;5.93;;;1.30;;
55076;SDS011;40971;44.702;11.030;2022-09-09T14:24:49;11.18;;;1.52;;
55076;SDS011;40971;44.702;11.030;2022-09-09T14:27:15;5.45;;;1.10;;
55076;SDS011;40971;44.702;11.030;2022-09-09T14:29:41;7.57;;;1.35;;
55076;SDS011;40971;44.702;11.030;2022-09-09T14:32:08;5.32;;;1.27;;
55076;SDS011;40971;44.702;11.030;2022-09-09T14:34:34;9.30;;;1.50;;
55076;SDS011;40971;44.702;11.030;2022-09-09T14:37:00;7.60;;;1.25;;
55076;SDS011;40971;44.702;11.030;2022-09-09T14:39:26;7.22;;;1.52;;
55076;SDS011;40971;44.702;11.030;2022-09-09T14:41:51;4.80;;;1.27;;
55076;SDS011;40971;44.702;11.030;2022-09-09T14:44:17;5.70;;;1.30;;
55076;SDS011;40971;44.702;11.030;2022-09-09T14:46:43;9.57;;;1.42;;
55076;SDS011;40971;44.702;11.030;2022-09-09T14:49:09;18.45;;;1.83;;
55076;SDS011;40971;44.702;11.030;2022-09-09T14:51:37;7.63;;;1.25;;
55076;SDS011;40971;44.702;11.030;2022-09-09T14:54:03;6.45;;;1.25;;
55076;SDS011;40971;44.702;11.030;2022-09-09T14:56:29;4.25;;;1.10;;
55076;SDS011;40971;44.702;11.030;2022-09-09T14:58:57;5.50;;;1.25;;
55076;SDS011;40971;44.702;11.030;2022-09-09T15:01:26;7.00;;;1.52;;
55076;SDS011;40971;44.702;11.030;2022-09-09T15:03:55;3.45;;;1.00;;
55076;SDS011;40971;44.702;11.030;2022-09-09T15:06:23;6.88;;;1.13;;
55076;SDS011;40971;44.702;11.030;2022-09-09T15:08:50;7.00;;;1.15;;
55076;SDS011;40971;44.702;11.030;2022-09-09T15:11:17;6.55;;;1.30;;
55076;SDS011;40971;44.702;11.030;2022-09-09T15:13:43;7.93;;;1.38;;
55076;SDS011;40971;44.702;11.030;2022-09-09T15:16:10;8.38;;;1.15;;
55076;SDS011;40971;44.702;11.030;2022-09-09T15:18:41;5.38;;;1.25;;
55076;SDS011;40971;44.702;11.030;2022-09-09T15:21:14;7.97;;;1.23;;
55076;SDS011;40971;44.702;11.030;2022-09-09T15:23:41;7.28;;;1.13;;
55076;SDS011;40971;44.702;11.030;2022-09-09T15:26:08;9.27;;;2.25;;
55076;SDS011;40971;44.702;11.030;2022-09-09T15:28:34;4.47;;;1.20;;
55076;SDS011;40971;44.702;11.030;2022-09-09T15:31:04;5.90;;;1.00;;
55076;SDS011;40971;44.702;11.030;2022-09-09T15:33:36;4.22;;;1.15;;
55076;SDS011;40971;44.702;11.030;2022-09-09T15:36:12;5.35;;;1.00;;
55076;SDS011;40971;44.702;11.030;2022-09-09T15:38:39;3.10;;;1.08;;
55076;SDS011;40971;44.702;11.030;2022-09-09T15:41:04;10.68;;;1.40;;
55076;SDS011;40971;44.702;11.030;2022-09-09T15:43:30;3.65;;;0.88;;
55076;SDS011;40971;44.702;11.030;2022-09-09T15:45:58;6.65;;;1.17;;
55076;SDS011;40971;44.702;11.030;2022-09-09T15:48:44;6.78;;;1.20;;
55076;SDS011;40971;44.702;11.030;2022-09-09T15:51:10;6.15;;;1.17;;
55076;SDS011;40971;44.702;11.030;2022-09-09T15:53:36;7.07;;;1.10;;
55076;SDS011;40971;44.702;11.030;2022-09-09T15:56:04;6.25;;;1.20;;
55076;SDS011;40971;44.702;11.030;2022-09-09T15:58:31;8.07;;;1.27;;
55076;SDS011;40971;44.702;11.030;2022-09-09T16:01:03;12.13;;;1.30;;
55076;SDS011;40971;44.702;11.030;2022-09-09T16:03:33;6.28;;;1.10;;
55076;SDS011;40971;44.702;11.030;2022-09-09T16:06:03;3.65;;;1.20;;
55076;SDS011;40971;44.702;11.030;2022-09-09T16:08:33;9.52;;;1.33;;
55076;SDS011;40971;44.702;11.030;2022-09-09T16:11:18;7.10;;;1.38;;
55076;SDS011;40971;44.702;11.030;2022-09-09T16:13:49;7.07;;;1.35;;
55076;SDS011;40971;44.702;11.030;2022-09-09T16:16:16;6.38;;;1.10;;
55076;SDS011;40971;44.702;11.030;2022-09-09T16:18:48;6.18;;;1.15;;
55076;SDS011;40971;44.702;11.030;2022-09-09T16:21:26;5.53;;;1.15;;
55076;SDS011;40971;44.702;11.030;2022-09-09T16:23:57;2.65;;;0.82;;
55076;SDS011;40971;44.702;11.030;2022-09-09T16:26:24;4.72;;;1.23;;
55076;SDS011;40971;44.702;11.030;2022-09-09T16:28:50;4.97;;;1.08;;
55076;SDS011;40971;44.702;11.030;2022-09-09T16:31:17;7.90;;;1.02;;
55076;SDS011;40971;44.702;11.030;2022-09-09T16:33:44;7.03;;;1.40;;
55076;SDS011;40971;44.702;11.030;2022-09-09T16:36:16;7.20;;;1.58;;
55076;SDS011;40971;44.702;11.030;2022-09-09T16:38:43;5.47;;;1.40;;
55076;SDS011;40971;44.702;11.030;2022-09-09T16:41:10;5.60;;;1.42;;
55076;SDS011;40971;44.702;11.030;2022-09-09T16:43:36;4.28;;;1.27;;
55076;SDS011;40971;44.702;11.030;2022-09-09T16:46:03;10.52;;;1.42;;
55076;SDS011;40971;44.702;11.030;2022-09-09T16:48:36;5.13;;;1.42;;
55076;SDS011;40971;44.702;11.030;2022-09-09T16:51:09;5.88;;;1.50;;
55076;SDS011;40971;44.702;11.030;2022-09-09T16:53:39;6.35;;;1.40;;
55076;SDS011;40971;44.702;11.030;2022-09-09T16:56:08;5.88;;;1.23;;
55076;SDS011;40971;44.702;11.030;2022-09-09T16:58:34;8.57;;;1.80;;
55076;SDS011;40971;44.702;11.030;2022-09-09T17:01:00;8.07;;;1.35;;
55076;SDS011;40971;44.702;11.030;2022-09-09T17:03:28;8.65;;;2.20;;
55076;SDS011;40971;44.702;11.030;2022-09-09T17:05:54;8.75;;;1.73;;
55076;SDS011;40971;44.702;11.030;2022-09-09T17:08:20;15.05;;;1.95;;
55076;SDS011;40971;44.702;11.030;2022-09-09T17:10:45;10.07;;;2.42;;
55076;SDS011;40971;44.702;11.030;2022-09-09T17:13:12;9.80;;;1.70;;
55076;SDS011;40971;44.702;11.030;2022-09-09T17:15:41;16.73;;;1.88;;
55076;SDS011;40971;44.702;11.030;2022-09-09T17:18:08;8.35;;;1.80;;
55076;SDS011;40971;44.702;11.030;2022-09-09T17:20:38;9.02;;;1.70;;
55076;SDS011;40971;44.702;11.030;2022-09-09T17:23:08;13.38;;;1.92;;
55076;SDS011;40971;44.702;11.030;2022-09-09T17:25:34;14.90;;;1.85;;
55076;SDS011;40971;44.702;11.030;2022-09-09T17:28:01;9.07;;;2.03;;
55076;SDS011;40971;44.702;11.030;2022-09-09T17:30:29;6.93;;;1.80;;
55076;SDS011;40971;44.702;11.030;2022-09-09T17:33:04;10.30;;;2.22;;
55076;SDS011;40971;44.702;11.030;2022-09-09T17:35:30;10.80;;;1.90;;